Durango Ski Resort, Colorado Weather observations

Data are for observation ending at time listed.
 Day   Time    Ave.   Ave.  Ave.  Vector   Max.    Total    Solar   Ave.  
  of    of     Air    Rel.  Wind   Wind    Wind   Precip.   Rad.    Soil  
Year   Day     Temp.  Hum.  Speed  Dir.    Gust                     Temp. 
2015   (PST)    F      %     mph   deg.    mph      in.     W/m2     F   
------------------------------------------------------------------------------
 245   10:10   58.2    52    5.0   194      9.1    99999.00   99999    99999.0
 245   10:20   57.1    52    5.4   186     11.6    99999.00   99999    99999.0
 245   10:30   56.9    52    7.0   196     10.3    99999.00   99999    99999.0
 245   10:40   55.7    58    5.5   183      8.6    99999.00   99999    99999.0
 245   10:50   56.8    59    5.4   168      9.1    99999.00   99999    99999.0
 245   11:00   55.4    61    5.8   166     10.8    99999.00   99999    99999.0
 245   11:10   56.1    62    4.9   161      7.8    99999.00   99999    99999.0
 245   11:20   57.6    57    6.4   169     12.1    99999.00   99999    99999.0
 245   11:30   56.2    59    7.2   170     10.3    99999.00   99999    99999.0
 245   11:40   58.9    54    7.0   168     12.1    99999.00   99999    99999.0
 245   11:50   57.6    55    7.4   169     10.3    99999.00   99999    99999.0
 245   12:00   59.6    53    7.8   168     13.3    99999.00   99999    99999.0
 245   12:10   58.1    55    9.1   166     14.2    99999.00   99999    99999.0
 245   12:20   55.5    60    8.2   172     14.2    99999.00   99999    99999.0
 245   12:30   54.4    65    8.8   190     15.9    99999.00   99999    99999.0
 245   12:40   52.9    66   11.2   191     17.6    99999.00   99999    99999.0
 245   12:50   51.6    69    8.0   197     14.2    99999.00   99999    99999.0
 245   13:00   53.3    67    7.4   190     12.9    99999.00   99999    99999.0
 245   13:10   59.5    59    5.9   190     12.5    99999.00   99999    99999.0
 245   13:20   58.7    57    7.3   172     11.6    99999.00   99999    99999.0
 245   13:30   57.7    58    7.3   178     12.9    99999.00   99999    99999.0
 245   13:40   56.0    59    5.6   172      9.1    99999.00   99999    99999.0
 245   13:50   55.8    55    8.2   203     12.1    99999.00   99999    99999.0
 245   14:00   55.3    56    6.2   192     11.6    99999.00   99999    99999.0
 245   14:10   55.3    59    2.9   162      8.2    99999.00   99999    99999.0
 245   14:20   54.4    62    1.6   184      6.5    99999.00   99999    99999.0
 245   14:30   54.2    64    1.2   192      6.1    99999.00   99999    99999.0
 245   14:40   53.8    66    4.4   185      6.9    99999.00   99999    99999.0
 245   14:50   54.4    66    0.2   173      3.5    99999.00   99999    99999.0
 245   15:00   54.9    64    0.1   167      3.5    99999.00   99999    99999.0
 245   15:10   55.0    65    0.1   167      3.5    99999.00   99999    99999.0
 245   15:20   55.1    64    0.0     0      0.0    99999.00   99999    99999.0
 245   15:30   55.5    63    0.0     0      0.0    99999.00   99999    99999.0
 245   15:40   55.1    64    0.0     0      0.0    99999.00   99999    99999.0
 245   15:50   55.0    68    0.0     0      0.0    99999.00   99999    99999.0
 245   16:00   55.0    68    0.0     0      0.0    99999.00   99999    99999.0
 245   16:10   55.6    58    0.0     0      0.0    99999.00   99999    99999.0
 245   16:20   55.7    54    0.0     0      0.0    99999.00   99999    99999.0
 245   16:30   55.6    54    0.0     0      0.0    99999.00   99999    99999.0
 245   16:40   55.5    54    0.0     0      0.0    99999.00   99999    99999.0
 245   16:50   55.7    54    0.0     0      0.0    99999.00   99999    99999.0
 245   17:00   55.4    58    0.0     0      0.0    99999.00   99999    99999.0
 245   17:10   55.2    58    0.0     0      0.0    99999.00   99999    99999.0
 245   17:20   55.6    58    0.0     0      0.0    99999.00   99999    99999.0
 245   17:30   54.7    63    0.0     0      0.0    99999.00   99999    99999.0
 245   17:40   53.9    68    0.0     0      0.0    99999.00   99999    99999.0
 245   17:50   54.1    67    0.0     0      0.0    99999.00   99999    99999.0
 245   18:00   54.3    66    0.0     0      0.0    99999.00   99999    99999.0
 245   18:10   54.5    63    0.0     0      0.0    99999.00   99999    99999.0
 245   18:20   54.5    62    0.0     0      0.0    99999.00   99999    99999.0
 245   18:30   53.7    63    0.0     0      0.0    99999.00   99999    99999.0
 245   18:40   53.3    63    0.0     0      0.0    99999.00   99999    99999.0
 245   18:50   53.3    63    0.0     0      0.0    99999.00   99999    99999.0
 245   19:00   53.2    64    0.0     0      0.0    99999.00   99999    99999.0
 245   19:10   53.1    64    0.0     0      0.0    99999.00   99999    99999.0
 245   19:20   53.2    63    0.0     0      0.0    99999.00   99999    99999.0
 245   19:30   53.0    65    0.0     0      0.0    99999.00   99999    99999.0
 245   19:40   52.7    67    1.3   167      4.8    99999.00   99999    99999.0
 245   19:50   52.3    68    4.8   167      6.5    99999.00   99999    99999.0
 245   20:00   52.0    69    6.4   167      7.8    99999.00   99999    99999.0
 245   20:10   51.5    70    5.8   166      7.8    99999.00   99999    99999.0
 245   20:20   51.7    69    6.3   166      7.4    99999.00   99999    99999.0
 245   20:30   51.6    69    5.8   166      6.9    99999.00   99999    99999.0
 245   20:40   51.5    70    6.2   166      8.2    99999.00   99999    99999.0
 245   20:50   51.4    70    6.3   166      8.6    99999.00   99999    99999.0
 245   21:00   51.4    70    6.4   166      7.8    99999.00   99999    99999.0
 245   21:10   51.4    71    4.9   166      6.5    99999.00   99999    99999.0
 245   21:20   51.1    73    4.8   166      6.5    99999.00   99999    99999.0
 245   21:30   51.0    75    4.9   166      6.9    99999.00   99999    99999.0
 245   21:40   50.9    76    5.5   159      7.8    99999.00   99999    99999.0
 245   21:50   50.5    77    4.7   156      6.5    99999.00   99999    99999.0
 245   22:00   49.7    79    5.8   162      9.1    99999.00   99999    99999.0
 245   22:10   48.9    82    7.2   173     12.1    99999.00   99999    99999.0
 245   22:20   48.3    85    7.3   176     11.2    99999.00   99999    99999.0
 245   22:30   47.8    88    5.9   144     11.2    99999.00   99999    99999.0
 245   22:40   47.3    91    6.0   133      9.9    99999.00   99999    99999.0
 245   22:50   46.8    91    6.3   131      9.5    99999.00   99999    99999.0
 245   23:00   46.9    91    6.0   150      9.1    99999.00   99999    99999.0
 245   23:10   47.1    91    6.1   144      9.5    99999.00   99999    99999.0
 245   23:20   47.0    92    5.3   152      8.2    99999.00   99999    99999.0
 245   23:30   47.3    91    5.4   136      7.8    99999.00   99999    99999.0
 245   23:40   47.8    87    4.8   141      6.1    99999.00   99999    99999.0
 245   23:50   47.6    89    4.4   141      6.1    99999.00   99999    99999.0
 246    0:00   47.4    90    4.7   141      6.5    99999.00   99999    99999.0
 246    0:10   47.2    91    5.0   141      6.1    99999.00   99999    99999.0
 246    0:20   47.2    90    4.7   141      6.5    99999.00   99999    99999.0
 246    0:30   47.2    89    4.4   142      6.1    99999.00   99999    99999.0
 246    0:40   47.3    89    4.3   142      5.7    99999.00   99999    99999.0
 246    0:50   47.3    88    4.5   152      5.7    99999.00   99999    99999.0
 246    1:00   47.4    88    3.8   163      5.7    99999.00   99999    99999.0
 246    1:10   47.4    88    0.5   163      5.2    99999.00   99999    99999.0
 246    1:20   47.5    88    0.0     0      0.0    99999.00   99999    99999.0
 246    1:30   47.5    88    0.0     0      0.0    99999.00   99999    99999.0
 246    1:40   47.5    87    0.0     0      0.0    99999.00   99999    99999.0
 246    1:50   47.4    87    0.0     0      0.0    99999.00   99999    99999.0
 246    2:00   47.3    88    1.3   165      7.4    99999.00   99999    99999.0
 246    2:10   46.2    89    7.7   138     12.5    99999.00   99999    99999.0
 246    2:20   44.9    94    7.0   127     12.1    99999.00   99999    99999.0
 246    2:30   45.3    94    5.8   142      8.6    99999.00   99999    99999.0
 246    2:40   45.1    91    5.4   134      7.4    99999.00   99999    99999.0
 246    2:50   44.8    87    5.2   127      7.4    99999.00   99999    99999.0
 246    3:00   44.8    85    2.5   140      7.4    99999.00   99999    99999.0
 246    3:10   45.6    81    3.2   155      7.4    99999.00   99999    99999.0
 246    3:20   45.7    81    2.8   170      5.2    99999.00   99999    99999.0
 246    3:30   45.6    83    2.0   170      5.7    99999.00   99999    99999.0
 246    3:40   45.4    85    0.7   170      4.4    99999.00   99999    99999.0
 246    3:50   45.4    87    0.4   170      3.9    99999.00   99999    99999.0
 246    4:00   45.4    90    0.0     0      0.0    99999.00   99999    99999.0
 246    4:10   45.2    91    0.0   170      2.7    99999.00   99999    99999.0
 246    4:20   45.2    92    0.0     0      0.0    99999.00   99999    99999.0
 246    4:30   45.2    92    0.0     0      0.0    99999.00   99999    99999.0
 246    4:40   45.1    94    0.0     0      0.0    99999.00   99999    99999.0
 246    4:50   45.0    94    0.0     0      0.0    99999.00   99999    99999.0
 246    5:00   45.1    94    0.0     0      0.0    99999.00   99999    99999.0
 246    5:10   45.1    94    0.0     0      0.0    99999.00   99999    99999.0
 246    5:20   45.1    94    0.0     0      0.0    99999.00   99999    99999.0
 246    5:30   45.0    94    0.0     0      0.0    99999.00   99999    99999.0
 246    5:40   45.1    93    0.0     0      0.0    99999.00   99999    99999.0
 246    5:50   45.2    92    0.0     0      0.0    99999.00   99999    99999.0
 246    6:00   45.3    92    0.0     0      0.0    99999.00   99999    99999.0
 246    6:10   45.0    94    0.0     0      0.0    99999.00   99999    99999.0
 246    6:20   45.0    94    0.0     0      0.0    99999.00   99999    99999.0
 246    6:30   44.9    94    0.0     0      0.0    99999.00   99999    99999.0
 246    6:40   45.0    94    0.0     0      0.0    99999.00   99999    99999.0
 246    6:50   45.4    92    0.0     0      0.0    99999.00   99999    99999.0
 246    7:00   45.5    91    0.0     0      0.0    99999.00   99999    99999.0
 246    7:10   45.6    92    0.0     0      0.0    99999.00   99999    99999.0
 246    7:20   46.2    90    0.0     0      0.0    99999.00   99999    99999.0
 246    7:30   46.3    90    0.0     0      0.0    99999.00   99999    99999.0
 246    7:40   45.8    91    0.0     0      0.0    99999.00   99999    99999.0
 246    7:50   45.5    93    0.0     0      0.0    99999.00   99999    99999.0
 246    8:00   45.6    93    0.0     0      0.0    99999.00   99999    99999.0
 246    8:10   45.5    92    0.0     0      0.0    99999.00   99999    99999.0
 246    8:20   45.5    93    0.0     0      0.0    99999.00   99999    99999.0
 246    8:30   46.1    92    0.0     0      0.0    99999.00   99999    99999.0
 246    8:40   47.3    90    0.0     0      0.0    99999.00   99999    99999.0
 246    8:50   48.1    84    0.0     0      0.0    99999.00   99999    99999.0
 246    9:00   49.3    81    0.0     0      0.0    99999.00   99999    99999.0
 246    9:10   49.0    86    0.0     0      0.0    99999.00   99999    99999.0
 246    9:20   48.3    84    0.0     0      0.0    99999.00   99999    99999.0
 246    9:30   48.0    85    0.0     0      0.0    99999.00   99999    99999.0
 246    9:40   49.5    78    0.0     0      0.0    99999.00   99999    99999.0
 246    9:50   49.5    75    0.0     0      0.0    99999.00   99999    99999.0
 246   10:00   48.2    80    0.0     0      0.0    99999.00   99999    99999.0

Return to Durango Ski Resort, Colorado graphs page.


Western Regional Climate Center,wrcc@dri.edu